Westfield, NJ

10:29 AM EDT on April 28, 2015 (GMT -0400)
Essex County | | Change Station
CLOSE
Current Station
Airport
Location: Caldwell,
Elevation: 174 ft
Nearby Weather Stations
Active Advisory: Special Statement Active Notice: Public Information Statement

Elev 174 ft 40.88 °N, 74.28 °W | Updated 36 minutes ago

Partly Cloudy
Partly Cloudy
57 °F
Feels Like 57 °F
N
10
Wind Variable Wind from NNE
Gusts 23 mph

Today
High -- | Low -- °F
--% Chance of Precip.
Yesterday
High -- | Low -- °F
Precip. -- in
6:00 AM 7:50 PM
Waxing Gibbous, 74% visible
Pressure 29.83 in
Visibility 10.0 miles
Clouds Few 4500 ft
Dew Point 36 °F
Humidity 45%
Rainfall 0.00 in
Snow Depth Not available.
UV 5 out of 12
Pollen 10.40 out of 12
Air Quality Not available.
Flu Activity Local Activity
METAR KCDW 281353Z AUTO 03009G20KT 10SM FEW045 14/02 A2981 RMK AO2 SLP101 T01390022 TSNO

More Conditions Fewer Conditions

Pressure 29.83 in
Visibility 10.0 miles
Clouds Few 4500 ft
Dew Point 36 °F
Humidity 45%
Rainfall 0.00 in
Snow Depth Not available.
UV 5 out of 12
Pollen 10.40 out of 12
Air Quality Not available.
Flu Activity Local Activity
METAR KCDW 281353Z AUTO 03009G20KT 10SM FEW045 14/02 A2981 RMK AO2 SLP101 T01390022 TSNO

More Conditions Fewer Conditions

10-Day Weather Forecast

Almanac

Astronomy

Apr. 28, 2015 Rise Set
Actual Time
Civil Twilight
Nautical Twilight
Astronomical Twilight
Moon
Length of Visible Light
Length of Day
Tomorrow will be .
, % of the Moon is Illuminated

Today's Extremes

State Highs State Lows

Community

WunderPhotos

Upload Photos

1,817,652 photos uploaded!

WunderBlogs® & News

Nearby

Air Quality

  Air Quality AQ Index Pollutant
Not available.

Snow Depth

Station Depth Elevation

Earthquake Activity

City Distance Mag. Time & Date
Minimum magnitude displayed is 2.5.

Coastal Water Temperatures

Place Temperature

Stations

Nearby Weather Stations

Station Location Temp. Windchill Dew Point Humidity Wind Precip. Elev Updated Type
                   
Special Statement
Statement as of 9:34 AM EDT on April 28, 2015

... Gusty winds and dry conditions today...

North to northwest winds will gust up to 20 to 25 mph today...
while relative humidities fall to 30 to 35 percent. This will
increase the risk for growth and spread of any fires
that develop.